createdAt,value
2019-02-14T00:00:42.140Z,12.73
2019-02-14T00:03:09.925Z,12.60
2019-02-14T00:05:37.630Z,11.27
2019-02-14T00:08:05.370Z,9.33
2019-02-14T00:10:33.092Z,9.73
2019-02-14T00:13:00.849Z,10.40
2019-02-14T00:15:28.557Z,9.43
2019-02-14T00:17:56.291Z,9.90
2019-02-14T00:20:24.061Z,9.33
2019-02-14T00:22:51.741Z,9.93
2019-02-14T00:25:19.439Z,11.60
2019-02-14T00:27:47.174Z,12.53
2019-02-14T00:30:14.881Z,13.83
2019-02-14T00:32:42.601Z,11.57
2019-02-14T00:35:10.334Z,11.17
2019-02-14T00:37:38.089Z,11.57
2019-02-14T00:40:05.862Z,10.67
2019-02-14T00:42:33.615Z,10.07
2019-02-14T00:45:01.377Z,9.83
2019-02-14T00:47:29.109Z,9.33
2019-02-14T00:49:56.848Z,10.23
2019-02-14T00:52:24.469Z,9.33
2019-02-14T00:54:52.201Z,9.17
2019-02-14T00:57:19.948Z,9.83
2019-02-14T00:59:47.676Z,10.43
2019-02-14T01:02:15.427Z,11.53
2019-02-14T01:04:43.189Z,10.57
2019-02-14T01:07:10.917Z,12.87
2019-02-14T01:09:38.643Z,14.60
2019-02-14T01:12:07.092Z,14.33
2019-02-14T01:14:34.848Z,14.50
2019-02-14T01:17:02.587Z,13.63
2019-02-14T01:19:30.333Z,13.13
2019-02-14T01:21:58.045Z,12.83
2019-02-14T01:24:25.790Z,12.80
2019-02-14T01:26:53.513Z,12.47
2019-02-14T01:29:21.276Z,12.27
2019-02-14T01:31:48.989Z,11.77
2019-02-14T01:34:16.754Z,12.00
2019-02-14T01:36:44.469Z,12.77
2019-02-14T01:39:12.211Z,12.63
2019-02-14T01:41:39.937Z,13.03
2019-02-14T01:44:07.691Z,12.27
2019-02-14T01:46:35.421Z,11.60
2019-02-14T01:49:03.233Z,12.43
2019-02-14T01:51:31.009Z,11.40
2019-02-14T01:53:58.745Z,10.93
2019-02-14T01:56:26.481Z,10.87
2019-02-14T01:58:54.193Z,10.33
2019-02-14T02:01:21.924Z,11.00
2019-02-14T02:03:49.753Z,10.40
2019-02-14T02:06:17.492Z,11.20
2019-02-14T02:08:45.270Z,10.63
2019-02-14T02:11:32.369Z,10.63
2019-02-14T02:14:00.182Z,11.40
2019-02-14T02:16:27.945Z,9.43
2019-02-14T02:18:55.653Z,9.30
2019-02-14T02:21:23.372Z,9.50
2019-02-14T02:23:51.092Z,9.57
2019-02-14T02:26:18.897Z,10.50
2019-02-14T02:28:46.609Z,11.93
2019-02-14T02:31:16.194Z,12.53
2019-02-14T02:33:44.141Z,12.13
2019-02-14T02:36:11.861Z,12.23
2019-02-14T02:38:39.574Z,13.53
2019-02-14T02:41:07.337Z,12.50
2019-02-14T02:43:35.009Z,13.67
2019-02-14T02:46:02.737Z,13.00
2019-02-14T02:48:30.443Z,14.37
2019-02-14T02:50:58.177Z,14.77
2019-02-14T02:53:25.881Z,12.77
2019-02-14T02:55:53.635Z,14.23
2019-02-14T02:58:21.357Z,14.10
2019-02-14T03:00:49.093Z,14.13
2019-02-14T03:03:16.805Z,11.60
2019-02-14T03:05:44.654Z,11.43
2019-02-14T03:08:12.374Z,10.10
2019-02-14T03:10:40.118Z,10.53
2019-02-14T03:13:07.830Z,9.63
2019-02-14T03:15:35.552Z,9.53
2019-02-14T03:18:03.291Z,10.23
2019-02-14T03:20:30.989Z,8.70
2019-02-14T03:22:58.730Z,9.67
2019-02-14T03:25:26.437Z,9.93
2019-02-14T03:27:54.179Z,10.07
2019-02-14T03:30:21.917Z,9.77
2019-02-14T03:32:49.665Z,9.43
2019-02-14T03:35:17.373Z,9.97
2019-02-14T03:37:45.099Z,10.83
2019-02-14T03:40:12.857Z,9.30
2019-02-14T03:42:40.600Z,10.30
2019-02-14T03:45:11.401Z,9.00
2019-02-14T03:47:39.126Z,10.47
2019-02-14T03:50:07.237Z,10.27
2019-02-14T03:52:35.001Z,11.07
2019-02-14T03:55:02.739Z,10.07
2019-02-14T03:57:30.496Z,10.37
2019-02-14T03:59:58.218Z,8.47
2019-02-14T04:02:25.966Z,7.50
2019-02-14T04:04:53.762Z,8.17
2019-02-14T04:07:21.497Z,8.30
2019-02-14T04:09:49.229Z,7.67
2019-02-14T04:12:16.954Z,9.10
2019-02-14T04:14:44.675Z,9.07
2019-02-14T04:17:12.421Z,8.83
2019-02-14T04:19:40.159Z,10.93
2019-02-14T04:22:07.877Z,9.67
2019-02-14T04:24:35.615Z,9.20
2019-02-14T04:27:03.337Z,8.97
2019-02-14T04:29:31.038Z,13.37
2019-02-14T04:31:58.766Z,10.13
2019-02-14T04:34:26.473Z,8.47
2019-02-14T04:36:55.811Z,9.10
2019-02-14T04:39:23.741Z,8.60
2019-02-14T04:41:51.470Z,9.60
2019-02-14T04:44:19.201Z,8.33
2019-02-14T04:46:46.909Z,9.50
2019-02-14T04:49:14.740Z,8.00
2019-02-14T04:51:42.367Z,9.90
2019-02-14T04:54:10.092Z,6.93
2019-02-14T04:56:37.811Z,7.73
2019-02-14T04:59:05.547Z,8.17
2019-02-14T05:01:33.265Z,8.33
2019-02-14T05:04:01.072Z,8.00
2019-02-14T05:06:28.798Z,9.17
2019-02-14T05:08:56.533Z,8.63
2019-02-14T05:11:24.249Z,7.97
2019-02-14T05:13:51.979Z,9.53
2019-02-14T05:16:19.693Z,10.33
2019-02-14T05:18:47.433Z,10.83
2019-02-14T05:21:15.154Z,9.47
2019-02-14T05:23:42.879Z,11.03
2019-02-14T05:26:10.589Z,10.60
2019-02-14T05:28:38.345Z,11.30
2019-02-14T05:31:05.998Z,9.83
2019-02-14T05:33:33.770Z,9.67
2019-02-14T05:36:01.513Z,9.60
2019-02-14T05:38:29.278Z,8.77
2019-02-14T05:40:56.999Z,8.23
2019-02-14T05:43:24.722Z,9.37
2019-02-14T05:45:52.458Z,9.37
2019-02-14T05:48:20.198Z,9.77
2019-02-14T05:50:47.925Z,11.17
2019-02-14T05:53:15.637Z,11.50
2019-02-14T05:55:43.378Z,13.13
2019-02-14T05:58:11.097Z,13.03
2019-02-14T06:00:38.831Z,15.40
2019-02-14T06:03:06.617Z,16.47
2019-02-14T06:05:34.373Z,16.37
2019-02-14T06:08:02.095Z,20.63
2019-02-14T06:10:29.832Z,32.87
2019-02-14T06:12:57.723Z,52.67
2019-02-14T06:15:25.525Z,46.43
2019-02-14T06:17:53.264Z,33.77
2019-02-14T06:20:21.017Z,37.90
2019-02-14T06:22:48.738Z,36.73
2019-02-14T06:25:16.536Z,27.57
2019-02-14T06:27:44.269Z,24.97
2019-02-14T06:30:12.531Z,23.93
2019-02-14T06:32:40.262Z,22.07
2019-02-14T06:35:08.886Z,22.23
2019-02-14T06:37:36.593Z,23.92
2019-02-14T06:40:05.146Z,18.90
2019-02-14T06:42:32.925Z,14.33
2019-02-14T06:45:00.686Z,14.93
2019-02-14T06:47:31.308Z,13.90
2019-02-14T06:49:59.340Z,14.53
2019-02-14T06:52:27.086Z,12.90
2019-02-14T06:54:55.293Z,13.43
2019-02-14T06:57:23.004Z,14.57
2019-02-14T06:59:50.737Z,12.93
2019-02-14T07:02:18.473Z,16.13
2019-02-14T07:04:46.305Z,18.55
2019-02-14T07:07:18.582Z,18.13
2019-02-14T07:09:43.554Z,22.07
2019-02-14T07:12:11.305Z,29.63
2019-02-14T07:14:39.046Z,33.77
2019-02-14T07:17:06.789Z,37.23
2019-02-14T07:19:34.516Z,28.43
2019-02-14T07:22:02.341Z,29.30
2019-02-14T07:24:30.087Z,30.77
2019-02-14T07:26:57.831Z,33.50
2019-02-14T07:29:25.523Z,30.83
2019-02-14T07:31:53.271Z,30.67
2019-02-14T07:34:20.996Z,32.43
2019-02-14T07:36:48.727Z,34.90
2019-02-14T07:39:16.445Z,75.60
2019-02-14T07:41:44.161Z,39.90
2019-02-14T07:44:11.905Z,55.17
2019-02-14T07:46:39.661Z,57.40
2019-02-14T07:49:07.384Z,50.33
2019-02-14T07:51:35.145Z,49.03
2019-02-14T07:54:02.976Z,40.17
2019-02-14T07:56:30.682Z,31.20
2019-02-14T07:58:58.445Z,24.17
2019-02-14T08:01:26.213Z,21.50
2019-02-14T08:03:54.507Z,19.57
2019-02-14T08:06:22.249Z,19.80
2019-02-14T08:08:49.970Z,19.27
2019-02-14T08:11:17.665Z,18.50
2019-02-14T08:13:45.409Z,17.80
2019-02-14T08:16:13.141Z,16.87
2019-02-14T08:18:40.954Z,18.53
2019-02-14T08:21:08.682Z,20.00
2019-02-14T08:23:36.412Z,19.40
2019-02-14T08:26:10.632Z,19.63
2019-02-14T08:28:33.670Z,17.87
2019-02-14T08:31:01.383Z,16.23
2019-02-14T08:33:29.138Z,15.30
2019-02-14T08:35:56.881Z,14.33
2019-02-14T08:38:24.624Z,17.57
2019-02-14T08:40:52.345Z,16.93
2019-02-14T08:43:20.109Z,17.73
2019-02-14T08:45:47.830Z,16.80
2019-02-14T08:48:15.569Z,15.63
2019-02-14T08:50:43.285Z,14.80
2019-02-14T08:53:11.029Z,12.10
2019-02-14T08:55:38.772Z,13.47
2019-02-14T08:58:06.499Z,11.23
2019-02-14T09:00:34.220Z,8.90
2019-02-14T09:03:01.941Z,8.67
2019-02-14T09:05:29.749Z,7.33
2019-02-14T09:07:57.504Z,9.80
2019-02-14T09:10:25.205Z,6.90
2019-02-14T09:12:52.937Z,6.53
2019-02-14T09:15:20.669Z,6.77
2019-02-14T09:17:48.389Z,6.23
2019-02-14T09:20:16.162Z,5.10
2019-02-14T09:22:43.890Z,5.77
2019-02-14T09:25:11.614Z,6.13
2019-02-14T09:27:39.349Z,5.33
2019-02-14T09:30:07.161Z,4.73
2019-02-14T09:32:34.974Z,4.43
2019-02-14T09:35:02.746Z,5.50
2019-02-14T09:37:30.472Z,5.57
2019-02-14T09:39:58.207Z,4.17
2019-02-14T09:42:25.936Z,4.77
2019-02-14T09:44:53.679Z,3.90
2019-02-14T09:47:21.406Z,4.10
2019-02-14T09:49:49.123Z,4.30
2019-02-14T09:52:16.836Z,3.90
2019-02-14T09:54:44.571Z,4.33
2019-02-14T09:57:12.286Z,4.00
2019-02-14T09:59:40.105Z,4.20
2019-02-14T10:02:07.812Z,4.67
2019-02-14T10:04:35.532Z,5.30
2019-02-14T10:07:03.319Z,4.23
2019-02-14T10:09:31.106Z,4.20
2019-02-14T10:11:58.773Z,4.27
2019-02-14T10:14:26.501Z,3.13
2019-02-14T10:16:54.221Z,3.77
2019-02-14T10:19:21.945Z,3.73
2019-02-14T10:21:49.650Z,3.57
2019-02-14T10:24:17.386Z,4.00
2019-02-14T10:26:45.127Z,3.17
2019-02-14T10:29:12.869Z,2.80
2019-02-14T10:31:40.569Z,3.70
2019-02-14T10:34:08.320Z,3.50
2019-02-14T10:36:36.030Z,3.17
2019-02-14T10:39:04.682Z,3.30
2019-02-14T10:41:32.419Z,2.90
2019-02-14T10:44:00.152Z,2.77
2019-02-14T10:46:27.894Z,3.37
2019-02-14T10:48:55.605Z,2.90
2019-02-14T10:51:23.343Z,3.23
2019-02-14T10:53:51.744Z,3.20
2019-02-14T10:56:19.519Z,2.83
2019-02-14T10:58:47.260Z,3.80
2019-02-14T11:01:15.049Z,2.93
2019-02-14T11:03:43.029Z,3.53
2019-02-14T11:06:10.871Z,3.57
2019-02-14T11:08:38.640Z,3.77
2019-02-14T11:11:06.373Z,3.13
2019-02-14T11:13:34.111Z,3.40
2019-02-14T11:16:01.849Z,3.40
2019-02-14T11:18:29.561Z,3.57
2019-02-14T11:20:57.305Z,5.50
2019-02-14T11:23:25.021Z,3.73
2019-02-14T11:25:52.763Z,3.50
2019-02-14T11:28:20.525Z,2.70
2019-02-14T11:30:48.256Z,3.00
2019-02-14T11:33:15.981Z,3.10
2019-02-14T11:35:43.707Z,3.20
2019-02-14T11:38:11.479Z,2.73
2019-02-14T11:40:39.212Z,3.00
2019-02-14T11:43:06.961Z,2.80
2019-02-14T11:45:34.709Z,3.57
2019-02-14T11:48:02.419Z,3.40
2019-02-14T11:50:30.250Z,2.93
2019-02-14T11:52:58.157Z,2.80
2019-02-14T11:55:25.876Z,2.77
2019-02-14T11:57:53.642Z,3.30
2019-02-14T12:00:22.037Z,3.07
2019-02-14T12:02:55.576Z,2.93
2019-02-14T12:05:19.324Z,3.53
2019-02-14T12:07:47.104Z,3.27
2019-02-14T12:10:14.814Z,2.93
2019-02-14T12:12:42.606Z,2.73
2019-02-14T12:15:10.362Z,2.63
2019-02-14T12:17:38.118Z,2.87
2019-02-14T12:20:12.243Z,2.73
2019-02-14T12:22:35.808Z,3.13
2019-02-14T12:25:04.101Z,2.90
2019-02-14T12:27:31.810Z,2.83
2019-02-14T12:29:59.563Z,2.40
2019-02-14T12:32:27.267Z,2.30
2019-02-14T12:34:55.017Z,2.70
2019-02-14T12:37:22.757Z,2.87
2019-02-14T12:39:50.501Z,2.97
2019-02-14T12:42:18.222Z,2.80
2019-02-14T12:44:45.973Z,2.70
2019-02-14T12:47:13.665Z,3.40
2019-02-14T12:49:41.401Z,2.87
2019-02-14T12:52:09.164Z,3.17
2019-02-14T12:54:36.889Z,2.83
2019-02-14T12:57:04.619Z,2.80
2019-02-14T12:59:32.361Z,2.53
2019-02-14T13:02:00.087Z,2.40
2019-02-14T13:04:27.794Z,2.60
2019-02-14T13:06:55.536Z,2.97
2019-02-14T13:09:23.317Z,3.00
2019-02-14T13:11:51.057Z,2.80
2019-02-14T13:14:18.765Z,2.97
2019-02-14T13:16:46.497Z,3.43
2019-02-14T13:19:14.240Z,2.87
2019-02-14T13:21:42.029Z,2.77
2019-02-14T13:24:09.783Z,2.37
2019-02-14T13:26:37.474Z,2.27
2019-02-14T13:29:05.177Z,2.17
2019-02-14T13:31:32.892Z,2.60
2019-02-14T13:34:00.589Z,2.20
2019-02-14T13:36:28.316Z,2.60
2019-02-14T13:38:56.021Z,2.33
2019-02-14T13:41:30.889Z,2.77
2019-02-14T13:43:53.353Z,2.47
2019-02-14T13:46:21.077Z,2.30
2019-02-14T13:48:48.809Z,2.70
2019-02-14T13:51:16.569Z,2.80
2019-02-14T13:53:44.341Z,2.67
2019-02-14T13:56:12.072Z,2.40
2019-02-14T13:58:39.785Z,3.13
2019-02-14T14:01:07.503Z,2.73
2019-02-14T14:03:35.273Z,2.30
2019-02-14T14:06:03.437Z,2.10
2019-02-14T14:08:31.136Z,2.73
2019-02-14T14:10:58.933Z,2.57
2019-02-14T14:13:26.637Z,2.30
2019-02-14T14:15:54.373Z,2.67
2019-02-14T14:18:22.131Z,2.67
2019-02-14T14:20:49.963Z,2.60
2019-02-14T14:23:19.802Z,2.70
2019-02-14T14:25:47.247Z,2.40
2019-02-14T14:28:14.981Z,2.30
2019-02-14T14:30:42.718Z,3.10
2019-02-14T14:33:10.489Z,2.20
2019-02-14T14:35:38.223Z,2.90
2019-02-14T14:38:05.923Z,2.97
2019-02-14T14:40:33.653Z,3.73
2019-02-14T14:43:21.028Z,2.50
2019-02-14T14:46:10.728Z,2.60
2019-02-14T14:48:40.540Z,3.70
2019-02-14T14:51:08.301Z,3.03
2019-02-14T14:53:36.091Z,2.70
2019-02-14T14:56:03.849Z,2.80
2019-02-14T14:58:31.602Z,2.30
2019-02-14T15:00:59.359Z,2.50
2019-02-14T15:03:27.104Z,2.37
2019-02-14T15:05:56.036Z,2.10
2019-02-14T15:08:23.832Z,3.10
2019-02-14T15:10:51.626Z,2.83
2019-02-14T15:13:19.365Z,2.67
2019-02-14T15:15:47.107Z,2.67
2019-02-14T15:18:14.862Z,2.60
2019-02-14T15:20:42.618Z,2.93
2019-02-14T15:23:10.333Z,2.63
2019-02-14T15:25:38.072Z,2.87
2019-02-14T15:28:05.794Z,2.40
2019-02-14T15:30:33.599Z,2.67
2019-02-14T15:33:01.371Z,2.43
2019-02-14T15:35:29.101Z,2.97
2019-02-14T15:37:56.837Z,2.50
2019-02-14T15:40:24.582Z,3.00
2019-02-14T15:42:52.515Z,3.23
2019-02-14T15:45:20.221Z,3.47
2019-02-14T15:47:47.945Z,3.00
2019-02-14T15:50:15.762Z,2.93
2019-02-14T15:52:43.473Z,2.73
2019-02-14T15:55:11.218Z,3.10
2019-02-14T15:57:40.458Z,4.00
2019-02-14T16:00:10.741Z,2.97
2019-02-14T16:02:38.537Z,3.67
2019-02-14T16:05:06.526Z,3.33
2019-02-14T16:07:34.309Z,2.80
2019-02-14T16:10:05.418Z,3.23
2019-02-14T16:12:31.659Z,3.10
2019-02-14T16:14:59.405Z,2.50
2019-02-14T16:17:27.146Z,2.53
2019-02-14T16:19:55.941Z,2.70
2019-02-14T16:22:30.109Z,2.70
2019-02-14T16:24:54.058Z,2.73
2019-02-14T16:27:22.590Z,2.47
2019-02-14T16:29:51.289Z,2.90
2019-02-14T16:32:19.049Z,2.83
2019-02-14T16:34:46.761Z,2.90
2019-02-14T16:37:14.520Z,3.90
2019-02-14T16:39:51.335Z,3.03
2019-02-14T16:42:11.769Z,3.07
2019-02-14T16:44:39.516Z,3.20
2019-02-14T16:47:07.225Z,2.83
2019-02-14T16:49:34.985Z,2.90
2019-02-14T16:52:02.732Z,2.87
2019-02-14T16:54:30.525Z,2.80
2019-02-14T16:56:58.251Z,3.10
2019-02-14T16:59:26.358Z,3.30
2019-02-14T17:01:54.061Z,3.23
2019-02-14T17:04:21.821Z,3.53
2019-02-14T17:06:49.542Z,3.50
2019-02-14T17:09:17.449Z,3.80
2019-02-14T17:11:45.125Z,4.53
2019-02-14T17:14:12.878Z,4.60
2019-02-14T17:16:40.737Z,4.27
2019-02-14T17:19:08.475Z,4.27
2019-02-14T17:21:36.242Z,4.60
2019-02-14T17:24:04.097Z,4.43
2019-02-14T17:26:31.832Z,4.53
2019-02-14T17:28:59.636Z,4.33
2019-02-14T17:31:27.738Z,5.13
2019-02-14T17:33:55.787Z,5.10
2019-02-14T17:36:23.667Z,4.70
2019-02-14T17:38:51.634Z,4.90
2019-02-14T17:41:19.365Z,6.07
2019-02-14T17:43:47.113Z,5.37
2019-02-14T17:46:14.829Z,4.80
2019-02-14T17:48:42.575Z,5.70
2019-02-14T17:51:10.282Z,14.10
2019-02-14T17:53:38.041Z,12.57
2019-02-14T17:56:05.775Z,12.87
2019-02-14T17:58:33.504Z,8.03
2019-02-14T18:01:01.245Z,12.17
2019-02-14T18:03:29.660Z,17.87
2019-02-14T18:05:59.667Z,15.90
2019-02-14T18:08:27.502Z,13.97
2019-02-14T18:10:55.357Z,14.97
2019-02-14T18:13:23.005Z,18.80
2019-02-14T18:15:50.741Z,25.00
2019-02-14T18:18:18.470Z,13.20
2019-02-14T18:20:51.912Z,20.00
2019-02-14T18:23:20.227Z,16.63
2019-02-14T18:25:47.961Z,16.83
2019-02-14T18:28:15.719Z,12.23
2019-02-14T18:30:43.521Z,11.20
2019-02-14T18:33:11.287Z,9.53
2019-02-14T18:35:39.085Z,13.10
2019-02-14T18:38:06.813Z,15.03
2019-02-14T18:40:34.565Z,10.90
2019-02-14T18:43:02.286Z,7.53
2019-02-14T18:45:30.129Z,7.50
2019-02-14T18:47:57.853Z,7.67
2019-02-14T18:50:25.578Z,9.00
2019-02-14T18:52:53.353Z,9.33
2019-02-14T18:55:21.077Z,11.30
2019-02-14T18:57:48.813Z,14.03
2019-02-14T19:00:16.575Z,12.87
2019-02-14T19:02:44.372Z,13.27
2019-02-14T19:05:12.148Z,7.30
2019-02-14T19:07:39.925Z,10.47
2019-02-14T19:10:09.196Z,8.53
2019-02-14T19:12:37.042Z,9.43
2019-02-14T19:15:04.913Z,7.03
2019-02-14T19:17:32.745Z,16.13
2019-02-14T19:20:00.449Z,24.90
2019-02-14T19:22:28.229Z,15.73
2019-02-14T19:24:55.984Z,12.83
2019-02-14T19:27:23.701Z,9.90
2019-02-14T19:29:51.433Z,9.37
2019-02-14T19:32:19.173Z,15.53
2019-02-14T19:34:46.894Z,9.27
2019-02-14T19:37:14.629Z,11.70
2019-02-14T19:39:42.351Z,14.57
2019-02-14T19:42:10.123Z,11.80
2019-02-14T19:44:37.851Z,14.57
2019-02-14T19:47:05.624Z,9.00
2019-02-14T19:49:33.642Z,16.23
2019-02-14T19:52:01.447Z,8.80
2019-02-14T19:54:29.153Z,10.20
2019-02-14T19:56:56.899Z,10.87
2019-02-14T19:59:24.583Z,28.73
2019-02-14T20:01:52.308Z,10.67
2019-02-14T20:04:20.038Z,12.20
2019-02-14T20:06:47.741Z,8.10
2019-02-14T20:09:15.460Z,11.50
2019-02-14T20:11:43.243Z,13.03
2019-02-14T20:14:10.962Z,8.53
2019-02-14T20:16:38.690Z,15.60
2019-02-14T20:19:06.385Z,6.57
2019-02-14T20:21:34.127Z,7.47
2019-02-14T20:24:01.849Z,6.53
2019-02-14T20:26:29.648Z,5.97
2019-02-14T20:28:57.345Z,6.50
2019-02-14T20:31:26.442Z,6.53
2019-02-14T20:33:54.125Z,5.70
2019-02-14T20:36:21.855Z,7.70
2019-02-14T20:38:49.618Z,5.70
2019-02-14T20:41:17.354Z,6.50
2019-02-14T20:43:45.093Z,7.27
2019-02-14T20:46:12.824Z,7.03
2019-02-14T20:48:40.563Z,6.77
2019-02-14T20:51:08.337Z,6.77
2019-02-14T20:53:36.114Z,6.30
2019-02-14T20:56:03.851Z,8.07
2019-02-14T20:58:31.596Z,20.10
2019-02-14T21:00:59.762Z,8.67
2019-02-14T21:03:27.515Z,8.80
2019-02-14T21:05:55.237Z,8.10
2019-02-14T21:08:22.987Z,7.80
2019-02-14T21:10:50.729Z,7.27
2019-02-14T21:13:18.525Z,8.13
2019-02-14T21:15:46.231Z,6.37
2019-02-14T21:18:14.015Z,6.17
2019-02-14T21:20:41.730Z,6.27
2019-02-14T21:23:09.617Z,4.73
2019-02-14T21:25:37.389Z,5.43
2019-02-14T21:28:05.109Z,5.70
2019-02-14T21:30:35.640Z,5.30
2019-02-14T21:33:02.456Z,7.50
2019-02-14T21:35:30.353Z,6.33
2019-02-14T21:37:58.127Z,13.53
2019-02-14T21:40:25.923Z,7.90
2019-02-14T21:42:53.743Z,7.07
2019-02-14T21:45:21.614Z,5.03
2019-02-14T21:47:49.349Z,6.93
2019-02-14T21:50:17.130Z,4.60
2019-02-14T21:52:45.003Z,4.93
2019-02-14T21:55:12.929Z,5.57
2019-02-14T21:57:40.686Z,4.17
2019-02-14T22:00:11.340Z,4.37
2019-02-14T22:02:39.161Z,4.80
2019-02-14T22:05:07.389Z,6.80
2019-02-14T22:07:35.423Z,5.67
2019-02-14T22:10:03.479Z,7.13
2019-02-14T22:12:39.747Z,4.87
2019-02-14T22:15:00.938Z,4.07
2019-02-14T22:17:28.665Z,3.80
2019-02-14T22:19:56.730Z,4.67
2019-02-14T22:22:24.471Z,5.03
2019-02-14T22:24:52.217Z,4.40
2019-02-14T22:27:21.018Z,4.50
2019-02-14T22:29:48.760Z,4.07
2019-02-14T22:32:19.137Z,3.97
2019-02-14T22:34:47.277Z,4.40
2019-02-14T22:37:15.027Z,3.97
2019-02-14T22:39:42.736Z,4.57
2019-02-14T22:42:10.753Z,4.30
2019-02-14T22:44:38.489Z,3.87
2019-02-14T22:47:06.218Z,4.33
2019-02-14T22:49:33.960Z,4.00
2019-02-14T22:52:01.693Z,3.80
2019-02-14T22:54:29.427Z,4.53
2019-02-14T22:56:57.221Z,5.23
2019-02-14T22:59:25.074Z,4.50
2019-02-14T23:01:52.913Z,4.00
2019-02-14T23:04:20.604Z,3.50
2019-02-14T23:06:48.338Z,3.50
2019-02-14T23:09:16.050Z,3.70
2019-02-14T23:11:43.777Z,3.57
2019-02-14T23:14:11.521Z,3.40
2019-02-14T23:16:39.243Z,3.30
2019-02-14T23:19:06.965Z,3.30
2019-02-14T23:21:34.733Z,3.03
2019-02-14T23:24:02.453Z,2.63
2019-02-14T23:26:30.232Z,3.17
2019-02-14T23:28:57.968Z,2.50
2019-02-14T23:31:25.684Z,2.57
2019-02-14T23:33:53.401Z,3.00
2019-02-14T23:36:21.141Z,2.60
2019-02-14T23:38:48.853Z,2.50
2019-02-14T23:41:16.593Z,2.90
2019-02-14T23:43:44.342Z,2.37
2019-02-14T23:46:12.077Z,3.07
2019-02-14T23:48:39.799Z,3.00
2019-02-14T23:51:07.534Z,2.63
2019-02-14T23:53:35.243Z,3.20
2019-02-14T23:56:02.973Z,2.73
2019-02-14T23:58:30.697Z,2.77
